createdAt,value
2018-07-22T00:02:21.255Z,13.53
2018-07-22T00:04:48.608Z,12.23
2018-07-22T00:07:15.960Z,12.33
2018-07-22T00:09:43.276Z,12.00
2018-07-22T00:12:10.611Z,12.20
2018-07-22T00:14:37.918Z,12.83
2018-07-22T00:17:05.280Z,11.43
2018-07-22T00:19:32.621Z,12.40
2018-07-22T00:21:59.962Z,13.50
2018-07-22T00:24:27.273Z,13.60
2018-07-22T00:26:54.660Z,13.60
2018-07-22T00:29:22.024Z,14.77
2018-07-22T00:31:49.371Z,12.60
2018-07-22T00:34:16.733Z,11.90
2018-07-22T00:36:44.076Z,11.67
2018-07-22T00:39:11.428Z,11.87
2018-07-22T00:41:38.738Z,12.90
2018-07-22T00:44:06.080Z,13.53
2018-07-22T00:46:33.399Z,14.20
2018-07-22T00:49:00.716Z,12.90
2018-07-22T00:51:28.039Z,12.33
2018-07-22T00:53:55.404Z,12.70
2018-07-22T00:56:22.876Z,13.80
2018-07-22T00:58:50.214Z,13.17
2018-07-22T01:01:17.535Z,13.83
2018-07-22T01:03:44.914Z,14.70
2018-07-22T01:06:12.298Z,16.10
2018-07-22T01:08:39.474Z,17.17
2018-07-22T01:11:06.789Z,17.17
2018-07-22T01:13:34.114Z,16.93
2018-07-22T01:16:01.460Z,15.83
2018-07-22T01:18:28.775Z,18.03
2018-07-22T01:20:56.116Z,17.23
2018-07-22T01:23:23.511Z,16.50
2018-07-22T01:25:50.855Z,18.47
2018-07-22T01:28:18.197Z,17.03
2018-07-22T01:30:45.634Z,17.70
2018-07-22T01:33:12.963Z,16.60
2018-07-22T01:35:40.305Z,15.60
2018-07-22T01:38:07.624Z,14.17
2018-07-22T01:40:34.956Z,14.43
2018-07-22T01:43:02.294Z,14.00
2018-07-22T01:45:29.624Z,15.07
2018-07-22T01:47:56.986Z,14.77
2018-07-22T01:50:24.410Z,15.23
2018-07-22T01:52:51.754Z,15.43
2018-07-22T01:55:19.084Z,16.23
2018-07-22T01:57:46.401Z,14.83
2018-07-22T02:00:13.771Z,13.73
2018-07-22T02:02:41.112Z,15.40
2018-07-22T02:05:08.467Z,15.43
2018-07-22T02:07:35.805Z,15.33
2018-07-22T02:10:03.147Z,15.30
2018-07-22T02:12:30.493Z,14.37
2018-07-22T02:14:57.861Z,13.63
2018-07-22T02:17:25.214Z,14.70
2018-07-22T02:19:52.663Z,14.43
2018-07-22T02:22:19.825Z,14.20
2018-07-22T02:24:47.163Z,14.80
2018-07-22T02:27:14.500Z,14.77
2018-07-22T02:29:41.828Z,15.00
2018-07-22T02:32:09.159Z,15.10
2018-07-22T02:34:36.503Z,14.03
2018-07-22T02:37:03.833Z,13.23
2018-07-22T02:39:31.168Z,14.13
2018-07-22T02:41:58.532Z,13.70
2018-07-22T02:44:25.907Z,13.60
2018-07-22T02:46:53.411Z,14.53
2018-07-22T02:49:20.752Z,13.10
2018-07-22T02:51:48.128Z,14.83
2018-07-22T02:54:15.471Z,13.83
2018-07-22T02:56:42.836Z,15.93
2018-07-22T02:59:10.170Z,16.80
2018-07-22T03:01:37.941Z,16.03
2018-07-22T03:04:06.048Z,15.60
2018-07-22T03:06:33.380Z,14.00
2018-07-22T03:09:00.736Z,15.07
2018-07-22T03:11:28.052Z,16.20
2018-07-22T03:13:55.406Z,13.97
2018-07-22T03:16:22.770Z,15.70
2018-07-22T03:18:50.135Z,16.20
2018-07-22T03:21:17.461Z,16.00
2018-07-22T03:23:44.795Z,14.27
2018-07-22T03:26:12.123Z,14.23
2018-07-22T03:28:39.474Z,15.40
2018-07-22T03:31:06.818Z,15.83
2018-07-22T03:33:34.155Z,15.23
2018-07-22T03:36:01.499Z,15.63
2018-07-22T03:38:28.827Z,15.57
2018-07-22T03:40:56.197Z,15.03
2018-07-22T03:43:23.587Z,13.63
2018-07-22T03:45:51.141Z,14.87
2018-07-22T03:48:18.496Z,14.90
2018-07-22T03:50:45.845Z,14.33
2018-07-22T03:53:13.153Z,14.00
2018-07-22T03:55:40.503Z,14.60
2018-07-22T03:58:07.833Z,14.13
2018-07-22T04:00:35.154Z,14.47
2018-07-22T04:03:02.468Z,14.00
2018-07-22T04:05:29.784Z,14.63
2018-07-22T04:07:57.107Z,13.97
2018-07-22T04:10:24.480Z,14.90
2018-07-22T04:12:51.898Z,14.13
2018-07-22T04:15:19.214Z,13.77
2018-07-22T04:17:46.520Z,14.60
2018-07-22T04:20:13.963Z,15.10
2018-07-22T04:22:41.320Z,14.70
2018-07-22T04:25:08.648Z,14.93
2018-07-22T04:27:36.000Z,14.23
2018-07-22T04:30:03.748Z,14.50
2018-07-22T04:32:31.083Z,16.60
2018-07-22T04:34:58.422Z,14.83
2018-07-22T04:37:25.793Z,15.90
2018-07-22T04:39:53.170Z,14.70
2018-07-22T04:42:20.502Z,15.13
2018-07-22T04:44:47.826Z,14.63
2018-07-22T04:47:15.155Z,14.17
2018-07-22T04:49:42.548Z,13.33
2018-07-22T04:52:09.856Z,13.70
2018-07-22T04:54:37.187Z,14.17
2018-07-22T04:57:04.550Z,15.33
2018-07-22T04:59:31.888Z,15.77
2018-07-22T05:01:59.209Z,14.90
2018-07-22T05:04:26.561Z,15.33
2018-07-22T05:06:53.908Z,13.20
2018-07-22T05:09:21.264Z,14.40
2018-07-22T05:11:48.580Z,13.23
2018-07-22T05:14:15.901Z,13.87
2018-07-22T05:16:43.235Z,14.77
2018-07-22T05:19:10.556Z,14.23
2018-07-22T05:21:37.882Z,15.17
2018-07-22T05:24:05.331Z,14.93
2018-07-22T05:26:32.660Z,15.33
2018-07-22T05:28:59.979Z,15.80
2018-07-22T05:31:27.343Z,16.17
2018-07-22T05:33:54.694Z,16.27
2018-07-22T05:36:22.039Z,16.63
2018-07-22T05:38:49.416Z,15.60
2018-07-22T05:41:16.746Z,16.27
2018-07-22T05:43:44.092Z,15.67
2018-07-22T05:46:11.468Z,15.20
2018-07-22T05:48:38.783Z,13.10
2018-07-22T05:51:06.145Z,17.97
2018-07-22T05:53:33.478Z,16.03
2018-07-22T05:56:00.801Z,15.77
2018-07-22T05:58:28.145Z,18.73
2018-07-22T06:00:55.510Z,15.70
2018-07-22T06:03:22.919Z,15.90
2018-07-22T06:05:50.275Z,15.47
2018-07-22T06:08:17.628Z,17.30
2018-07-22T06:10:44.969Z,17.03
2018-07-22T06:13:12.285Z,16.20
2018-07-22T06:15:39.676Z,16.57
2018-07-22T06:18:07.031Z,16.40
2018-07-22T06:20:34.359Z,15.33
2018-07-22T06:23:01.693Z,15.73
2018-07-22T06:25:29.050Z,11.80
2018-07-22T06:27:56.447Z,19.33
2018-07-22T06:30:23.884Z,18.13
2018-07-22T06:32:51.288Z,17.87
2018-07-22T06:35:18.723Z,16.90
2018-07-22T06:37:45.966Z,15.93
2018-07-22T06:40:13.324Z,20.63
2018-07-22T06:42:40.620Z,17.17
2018-07-22T06:45:08.006Z,22.93
2018-07-22T06:47:35.345Z,19.73
2018-07-22T06:50:02.683Z,16.53
2018-07-22T06:52:30.007Z,22.60
2018-07-22T06:54:57.379Z,20.37
2018-07-22T06:57:24.783Z,18.63
2018-07-22T06:59:52.208Z,18.90
2018-07-22T07:02:19.567Z,19.17
2018-07-22T07:04:46.891Z,17.63
2018-07-22T07:07:14.226Z,14.87
2018-07-22T07:09:41.584Z,18.53
2018-07-22T07:12:08.957Z,17.27
2018-07-22T07:14:36.282Z,18.90
2018-07-22T07:17:03.622Z,17.63
2018-07-22T07:19:30.934Z,16.67
2018-07-22T07:21:58.326Z,18.50
2018-07-22T07:24:25.728Z,19.03
2018-07-22T07:26:53.091Z,17.90
2018-07-22T07:29:20.433Z,18.23
2018-07-22T07:31:47.762Z,16.23
2018-07-22T07:34:15.214Z,18.37
2018-07-22T07:36:42.530Z,18.40
2018-07-22T07:39:09.860Z,17.03
2018-07-22T07:41:37.206Z,18.67
2018-07-22T07:44:04.533Z,17.43
2018-07-22T07:46:31.918Z,18.57
2018-07-22T07:48:59.267Z,16.07
2018-07-22T07:51:26.730Z,16.93
2018-07-22T07:53:54.092Z,18.80
2018-07-22T07:56:21.468Z,19.03
2018-07-22T07:58:48.676Z,19.00
2018-07-22T08:01:16.090Z,16.47
2018-07-22T08:03:43.445Z,19.20
2018-07-22T08:06:10.783Z,19.57
2018-07-22T08:08:38.140Z,19.53
2018-07-22T08:11:05.552Z,19.17
2018-07-22T08:13:32.872Z,18.70
2018-07-22T08:16:00.213Z,19.40
2018-07-22T08:18:27.529Z,17.47
2018-07-22T08:20:55.059Z,18.90
2018-07-22T08:23:22.506Z,18.60
2018-07-22T08:25:49.860Z,17.37
2018-07-22T08:28:27.441Z,17.00
2018-07-22T08:30:54.813Z,14.97
2018-07-22T08:33:22.194Z,16.00
2018-07-22T08:35:49.567Z,14.50
2018-07-22T08:38:16.927Z,17.23
2018-07-22T08:40:44.270Z,14.97
2018-07-22T08:43:11.628Z,15.80
2018-07-22T08:45:38.940Z,14.87
2018-07-22T08:48:07.217Z,18.37
2018-07-22T08:50:34.576Z,15.37
2018-07-22T08:53:01.911Z,15.23
2018-07-22T08:55:29.261Z,16.80
2018-07-22T08:57:56.621Z,15.23
2018-07-22T09:00:24.038Z,17.20
2018-07-22T09:02:52.045Z,17.73
2018-07-22T09:05:19.356Z,13.80
2018-07-22T09:07:46.738Z,17.93
2018-07-22T09:10:14.060Z,15.37
2018-07-22T09:12:41.380Z,16.33
2018-07-22T09:15:08.658Z,17.53
2018-07-22T09:17:36.016Z,17.40
2018-07-22T09:20:03.868Z,16.67
2018-07-22T09:22:31.200Z,16.30
2018-07-22T09:24:58.552Z,17.77
2018-07-22T09:27:26.049Z,14.07
2018-07-22T09:29:53.469Z,17.73
2018-07-22T09:32:20.794Z,15.33
2018-07-22T09:34:48.244Z,15.27
2018-07-22T09:37:15.648Z,15.27
2018-07-22T09:39:42.998Z,13.30
2018-07-22T09:42:10.401Z,16.13
2018-07-22T09:44:37.831Z,13.90
2018-07-22T09:47:05.428Z,16.53
2018-07-22T09:49:32.795Z,16.23
2018-07-22T09:52:00.125Z,16.10
2018-07-22T09:54:27.454Z,14.40
2018-07-22T09:56:54.884Z,17.27
2018-07-22T09:59:22.343Z,14.97
2018-07-22T10:01:49.705Z,18.13
2018-07-22T10:04:17.037Z,15.17
2018-07-22T10:06:44.356Z,14.00
2018-07-22T10:09:11.711Z,15.47
2018-07-22T10:11:39.067Z,19.27
2018-07-22T10:14:06.471Z,20.50
2018-07-22T10:16:33.878Z,17.47
2018-07-22T10:19:01.213Z,16.60
2018-07-22T10:21:28.561Z,19.77
2018-07-22T10:23:55.920Z,15.40
2018-07-22T10:26:23.132Z,14.30
2018-07-22T10:28:50.534Z,16.17
2018-07-22T10:31:17.892Z,16.90
2018-07-22T10:33:45.239Z,20.53
2018-07-22T10:36:12.599Z,19.00
2018-07-22T10:38:39.957Z,18.60
2018-07-22T10:41:07.276Z,19.83
2018-07-22T10:43:34.623Z,17.70
2018-07-22T10:46:01.965Z,17.60
2018-07-22T10:48:29.315Z,15.80
2018-07-22T10:50:56.686Z,17.13
2018-07-22T10:53:24.093Z,16.43
2018-07-22T10:55:51.431Z,21.87
2018-07-22T10:58:18.788Z,17.10
2018-07-22T11:00:46.140Z,15.30
2018-07-22T11:03:13.607Z,15.50
2018-07-22T11:05:40.894Z,17.77
2018-07-22T11:08:08.228Z,16.07
2018-07-22T11:10:35.710Z,18.20
2018-07-22T11:13:03.012Z,18.47
2018-07-22T11:15:30.343Z,17.50
2018-07-22T11:17:57.680Z,15.87
2018-07-22T11:20:25.048Z,15.10
2018-07-22T11:22:52.417Z,15.30
2018-07-22T11:25:19.751Z,15.60
2018-07-22T11:27:47.095Z,17.43
2018-07-22T11:30:14.438Z,15.37
2018-07-22T11:32:41.798Z,14.20
2018-07-22T11:35:09.168Z,16.07
2018-07-22T11:37:36.503Z,17.87
2018-07-22T11:40:04.188Z,17.77
2018-07-22T11:42:31.482Z,17.20
2018-07-22T11:44:58.907Z,16.90
2018-07-22T11:47:26.320Z,15.07
2018-07-22T11:49:53.746Z,15.60
2018-07-22T11:52:21.119Z,15.70
2018-07-22T11:54:48.499Z,15.60
2018-07-22T11:57:15.883Z,15.50
2018-07-22T11:59:43.241Z,16.17
2018-07-22T12:02:10.622Z,16.90
2018-07-22T12:04:37.947Z,14.40
2018-07-22T12:07:05.281Z,15.70
2018-07-22T12:09:32.633Z,13.90
2018-07-22T12:11:59.966Z,15.43
2018-07-22T12:14:27.354Z,12.70
2018-07-22T12:16:54.714Z,14.27
2018-07-22T12:19:22.155Z,13.20
2018-07-22T12:21:49.509Z,13.33
2018-07-22T12:24:16.913Z,12.30
2018-07-22T12:26:44.298Z,15.60
2018-07-22T12:29:11.669Z,12.60
2018-07-22T12:31:39.032Z,13.50
2018-07-22T12:34:06.451Z,14.70
2018-07-22T12:36:33.820Z,13.90
2018-07-22T12:39:01.172Z,12.80
2018-07-22T12:41:28.530Z,13.83
2018-07-22T12:43:55.887Z,13.83
2018-07-22T12:46:23.368Z,14.63
2018-07-22T12:48:50.718Z,13.80
2018-07-22T12:51:18.083Z,15.17
2018-07-22T12:53:45.499Z,16.53
2018-07-22T12:56:12.784Z,18.10
2018-07-22T12:58:40.139Z,21.13
2018-07-22T13:01:07.500Z,24.20
2018-07-22T13:03:34.835Z,26.60
2018-07-22T13:06:02.151Z,24.10
2018-07-22T13:08:29.496Z,21.70
2018-07-22T13:10:56.928Z,16.00
2018-07-22T13:13:24.651Z,18.60
2018-07-22T13:15:51.959Z,21.50
2018-07-22T13:18:19.305Z,19.77
2018-07-22T13:20:46.649Z,23.80
2018-07-22T13:23:13.982Z,25.03
2018-07-22T13:25:41.320Z,25.13
2018-07-22T13:28:08.651Z,28.40
2018-07-22T13:30:36.297Z,19.80
2018-07-22T13:33:03.695Z,24.33
2018-07-22T13:35:31.036Z,19.67
2018-07-22T13:37:58.401Z,16.57
2018-07-22T13:40:25.721Z,16.50
2018-07-22T13:42:53.692Z,16.30
2018-07-22T13:45:21.141Z,18.80
2018-07-22T13:47:48.336Z,20.77
2018-07-22T13:50:15.720Z,21.53
2018-07-22T13:52:43.033Z,19.23
2018-07-22T13:55:10.396Z,23.30
2018-07-22T13:57:37.741Z,23.57
2018-07-22T14:00:05.239Z,26.00
2018-07-22T14:02:32.641Z,24.37
2018-07-22T14:04:59.951Z,26.77
2018-07-22T14:07:27.324Z,30.37
2018-07-22T14:09:54.663Z,34.37
2018-07-22T14:12:22.059Z,20.93
2018-07-22T14:14:49.359Z,17.33
2018-07-22T14:17:16.735Z,17.63
2018-07-22T14:19:44.061Z,18.27
2018-07-22T14:22:11.416Z,18.40
2018-07-22T14:24:38.733Z,18.63
2018-07-22T14:27:06.095Z,22.37
2018-07-22T14:29:33.419Z,25.67
2018-07-22T14:32:00.759Z,32.17
2018-07-22T14:34:28.191Z,43.93
2018-07-22T14:36:55.549Z,41.67
2018-07-22T14:39:22.796Z,46.13
2018-07-22T14:41:50.120Z,47.23
2018-07-22T14:44:17.461Z,49.60
2018-07-22T14:46:44.819Z,50.07
2018-07-22T14:49:12.192Z,47.13
2018-07-22T14:51:39.507Z,51.63
2018-07-22T14:54:06.857Z,59.30
2018-07-22T14:56:34.229Z,60.37
2018-07-22T14:59:01.540Z,50.80
2018-07-22T15:01:28.968Z,48.53
2018-07-22T15:03:56.352Z,56.43
2018-07-22T15:06:23.749Z,64.90
2018-07-22T15:08:51.084Z,57.23
2018-07-22T15:11:18.420Z,61.63
2018-07-22T15:13:45.873Z,59.03
2018-07-22T15:16:13.199Z,80.30
2018-07-22T15:18:40.555Z,65.53
2018-07-22T15:21:07.851Z,53.37
2018-07-22T15:23:35.191Z,48.93
2018-07-22T15:26:02.533Z,53.40
2018-07-22T15:28:29.878Z,52.50
2018-07-22T15:30:57.255Z,54.30
2018-07-22T15:33:24.666Z,52.47
2018-07-22T15:35:52.018Z,52.37
2018-07-22T15:38:19.356Z,48.70
2018-07-22T15:40:46.681Z,50.23
2018-07-22T15:43:14.079Z,49.80
2018-07-22T15:45:41.415Z,52.07
2018-07-22T15:48:09.181Z,49.40
2018-07-22T15:50:36.573Z,49.40
2018-07-22T15:53:03.979Z,49.57
2018-07-22T15:55:31.475Z,48.83
2018-07-22T15:57:58.676Z,52.13
2018-07-22T16:00:26.046Z,47.63
2018-07-22T16:02:53.388Z,47.57
2018-07-22T16:05:20.751Z,48.27
2018-07-22T16:07:48.129Z,44.03
2018-07-22T16:10:15.468Z,44.23
2018-07-22T16:12:42.814Z,50.53
2018-07-22T16:15:10.170Z,44.07
2018-07-22T16:17:37.512Z,41.47
2018-07-22T16:20:04.835Z,44.93
2018-07-22T16:22:32.184Z,44.37
2018-07-22T16:24:59.508Z,43.30
2018-07-22T16:27:26.975Z,38.03
2018-07-22T16:29:54.429Z,39.53
2018-07-22T16:32:21.792Z,37.00
2018-07-22T16:34:49.122Z,36.53
2018-07-22T16:37:16.529Z,33.67
2018-07-22T16:39:43.791Z,36.57
2018-07-22T16:42:11.106Z,37.23
2018-07-22T16:44:38.499Z,37.93
2018-07-22T16:47:05.838Z,36.77
2018-07-22T16:49:33.330Z,30.93
2018-07-22T16:52:00.674Z,33.17
2018-07-22T16:54:28.115Z,30.87
2018-07-22T16:56:55.299Z,29.73
2018-07-22T16:59:22.655Z,31.30
2018-07-22T17:01:49.984Z,30.60
2018-07-22T17:04:17.316Z,28.60
2018-07-22T17:06:44.669Z,27.00
2018-07-22T17:09:12.031Z,29.50
2018-07-22T17:11:39.450Z,28.10
2018-07-22T17:14:06.792Z,28.70
2018-07-22T17:16:34.117Z,24.97
2018-07-22T17:19:01.775Z,25.50
2018-07-22T17:21:29.148Z,22.40
2018-07-22T17:23:56.534Z,21.23
2018-07-22T17:26:23.904Z,25.30
2018-07-22T17:28:51.225Z,24.70
2018-07-22T17:31:18.576Z,29.10
2018-07-22T17:33:45.933Z,22.27
2018-07-22T17:36:13.286Z,24.07
2018-07-22T17:38:40.636Z,25.20
2018-07-22T17:41:07.972Z,23.17
2018-07-22T17:43:35.310Z,24.90
2018-07-22T17:46:02.635Z,22.43
2018-07-22T17:48:30.031Z,23.63
2018-07-22T17:50:57.470Z,23.50
2018-07-22T17:53:24.884Z,22.10
2018-07-22T17:55:52.546Z,23.30
2018-07-22T17:58:19.884Z,21.97
2018-07-22T18:00:47.233Z,22.07
2018-07-22T18:03:19.295Z,21.33
2018-07-22T18:05:46.657Z,24.40
2018-07-22T18:08:14.035Z,23.60
2018-07-22T18:10:41.364Z,21.60
2018-07-22T18:13:08.695Z,20.20
2018-07-22T18:15:36.019Z,20.07
2018-07-22T18:18:03.460Z,20.17
2018-07-22T18:20:30.816Z,20.37
2018-07-22T18:22:58.204Z,21.30
2018-07-22T18:25:25.524Z,24.27
2018-07-22T18:27:53.753Z,19.43
2018-07-22T18:30:21.147Z,18.30
2018-07-22T18:32:48.652Z,19.40
2018-07-22T18:35:16.062Z,17.27
2018-07-22T18:37:43.416Z,16.70
2018-07-22T18:40:10.828Z,16.83
2018-07-22T18:42:38.824Z,20.07
2018-07-22T18:45:06.162Z,16.77
2018-07-22T18:47:33.495Z,19.37
2018-07-22T18:50:00.827Z,17.00
2018-07-22T18:52:28.150Z,15.43
2018-07-22T18:54:55.789Z,15.70
2018-07-22T18:57:23.237Z,15.13
2018-07-22T18:59:50.647Z,16.73
2018-07-22T19:02:18.268Z,17.83
2018-07-22T19:04:45.611Z,17.50
2018-07-22T19:07:12.950Z,17.30
2018-07-22T19:09:40.301Z,16.80
2018-07-22T19:12:07.640Z,21.50
2018-07-22T19:14:34.974Z,21.63
2018-07-22T19:17:02.274Z,19.23
2018-07-22T19:19:29.699Z,19.80
2018-07-22T19:21:57.014Z,19.20
2018-07-22T19:24:24.478Z,22.00
2018-07-22T19:26:51.848Z,22.93
2018-07-22T19:29:19.250Z,24.27
2018-07-22T19:31:46.575Z,24.17
2018-07-22T19:34:13.892Z,22.27
2018-07-22T19:36:41.247Z,24.07
2018-07-22T19:39:08.580Z,23.43
2018-07-22T19:41:35.913Z,20.53
2018-07-22T19:44:03.244Z,22.40
2018-07-22T19:46:30.633Z,25.10
2018-07-22T19:48:58.002Z,25.03
2018-07-22T19:51:25.436Z,22.33
2018-07-22T19:53:52.827Z,23.33
2018-07-22T19:56:20.243Z,24.97
2018-07-22T19:58:47.626Z,23.70
2018-07-22T20:01:14.970Z,24.80
2018-07-22T20:03:42.295Z,27.27
2018-07-22T20:06:09.628Z,27.27
2018-07-22T20:08:36.989Z,26.70
2018-07-22T20:11:04.318Z,27.73
2018-07-22T20:13:31.658Z,25.17
2018-07-22T20:15:59.020Z,26.87
2018-07-22T20:18:26.427Z,30.60
2018-07-22T20:20:53.926Z,26.20
2018-07-22T20:23:21.231Z,31.63
2018-07-22T20:25:48.602Z,27.43
2018-07-22T20:28:15.914Z,27.67
2018-07-22T20:30:43.240Z,28.97
2018-07-22T20:33:10.566Z,27.67
2018-07-22T20:35:37.880Z,28.17
2018-07-22T20:38:05.609Z,30.37
2018-07-22T20:40:32.930Z,30.13
2018-07-22T20:43:00.267Z,29.87
2018-07-22T20:45:27.628Z,30.47
2018-07-22T20:47:55.017Z,30.33
2018-07-22T20:50:22.393Z,33.00
2018-07-22T20:52:49.743Z,28.67
2018-07-22T20:55:17.046Z,30.30
2018-07-22T20:57:44.390Z,28.30
2018-07-22T21:00:11.697Z,34.10
2018-07-22T21:02:39.036Z,30.80
2018-07-22T21:05:06.410Z,28.17
2018-07-22T21:07:33.734Z,27.90
2018-07-22T21:10:01.064Z,22.47
2018-07-22T21:12:40.579Z,22.70
2018-07-22T21:15:07.990Z,25.33
2018-07-22T21:17:35.259Z,23.80
2018-07-22T21:20:02.593Z,27.07
2018-07-22T21:22:29.927Z,27.63
2018-07-22T21:24:57.302Z,25.60
2018-07-22T21:27:24.666Z,24.30
2018-07-22T21:29:51.984Z,27.73
2018-07-22T21:32:19.304Z,21.37
2018-07-22T21:34:46.752Z,25.03
2018-07-22T21:37:14.140Z,26.20
2018-07-22T21:39:41.461Z,24.77
2018-07-22T21:42:08.908Z,26.63
2018-07-22T21:44:36.240Z,25.83
2018-07-22T21:47:03.587Z,27.33
2018-07-22T21:49:30.970Z,27.23
2018-07-22T21:51:58.150Z,28.07
2018-07-22T21:54:25.564Z,26.30
2018-07-22T21:56:52.915Z,27.27
2018-07-22T21:59:20.383Z,25.30
2018-07-22T22:01:47.735Z,29.50
2018-07-22T22:04:15.044Z,26.70
2018-07-22T22:06:42.468Z,21.90
2018-07-22T22:09:09.775Z,26.03
2018-07-22T22:11:37.124Z,25.10
2018-07-22T22:14:04.432Z,28.73
2018-07-22T22:16:31.741Z,27.53
2018-07-22T22:18:59.144Z,24.73
2018-07-22T22:21:26.559Z,25.07
2018-07-22T22:23:53.988Z,23.43
2018-07-22T22:26:21.281Z,24.93
2018-07-22T22:28:48.673Z,24.57
2018-07-22T22:31:16.109Z,25.80
2018-07-22T22:33:43.448Z,26.50
2018-07-22T22:36:10.766Z,25.83
2018-07-22T22:38:38.097Z,25.90
2018-07-22T22:41:05.552Z,27.23
2018-07-22T22:43:32.796Z,25.33
2018-07-22T22:46:00.113Z,27.17
2018-07-22T22:48:27.488Z,26.77
2018-07-22T22:50:54.884Z,26.00
2018-07-22T22:53:22.241Z,26.90
2018-07-22T22:55:49.609Z,24.40
2018-07-22T22:58:28.352Z,24.70
2018-07-22T23:00:55.708Z,26.97
2018-07-22T23:03:23.057Z,24.33
2018-07-22T23:05:50.379Z,25.80
2018-07-22T23:08:17.765Z,24.53
2018-07-22T23:10:45.051Z,27.13
2018-07-22T23:13:12.441Z,27.03
2018-07-22T23:15:39.743Z,26.33
2018-07-22T23:18:07.083Z,32.53
2018-07-22T23:20:34.411Z,34.40
2018-07-22T23:23:01.733Z,29.77
2018-07-22T23:25:29.070Z,33.70
2018-07-22T23:27:56.431Z,31.43
2018-07-22T23:30:23.795Z,31.97
2018-07-22T23:32:51.090Z,30.50
2018-07-22T23:35:18.452Z,27.47
2018-07-22T23:37:45.767Z,30.37
2018-07-22T23:40:13.087Z,29.67
2018-07-22T23:42:40.415Z,27.10
2018-07-22T23:45:07.747Z,24.63
2018-07-22T23:47:35.066Z,27.00
2018-07-22T23:50:02.411Z,25.10
2018-07-22T23:52:29.780Z,24.83
2018-07-22T23:54:57.122Z,26.20
2018-07-22T23:57:24.507Z,27.00
2018-07-22T23:59:51.843Z,27.93
